Time;durP1;ratioP1;P1;durP2;ratioP2;P2;SDS_P1;SDS_P2;PMS_P1;PMS_P2;Temp;Humidity;BMP_temperature;BMP_pressure;BME280_temperature;BME280_humidity;BME280_pressure;Samples;Min_cycle;Max_cycle;Signal;HPM_P1;HPM_P2
2022/07/15 00:00:06;;;;;;;;;2.00;2.00;;;;;;;;4954252;28;8966;-83
2022/07/15 00:02:33;;;;;;;;;2.50;2.50;;;;;;;;4953987;28;9706;-84
2022/07/15 00:05:02;;;;;;;;;2.00;2.00;;;;;;;;4922492;28;8894;-81
2022/07/15 00:07:29;;;;;;;;;4.25;2.75;;;;;;;;4956577;28;8893;-82
2022/07/15 00:12:49;;;;;;;;;2.00;2.00;;;;;;;;4959657;28;8838;-83
2022/07/15 00:15:17;;;;;;;;;2.50;2.50;;;;;;;;4922699;28;8959;-84
2022/07/15 00:17:44;;;;;;;;;1.75;1.75;;;;;;;;4944638;28;8917;-84
2022/07/15 00:20:14;;;;;;;;;6.00;3.25;;;;;;;;4955976;28;8863;-82
2022/07/15 00:22:42;;;;;;;;;2.00;2.00;;;;;;;;4956608;28;8907;-83
2022/07/15 00:25:10;;;;;;;;;2.50;2.00;;;;;;;;4953990;28;8854;-83
2022/07/15 00:27:50;;;;;;;;;3.00;3.00;;;;;;;;4955165;28;9639;-83
2022/07/15 00:30:17;;;;;;;;;1.00;1.00;;;;;;;;4954084;28;8856;-84
2022/07/15 00:32:47;;;;;;;;;4.50;2.75;;;;;;;;4959132;28;8836;-83
2022/07/15 00:35:16;;;;;;;;;3.00;3.00;;;;;;;;4961480;28;8895;-84
2022/07/15 00:37:44;;;;;;;;;4.00;4.00;;;;;;;;4946078;28;8889;-83
2022/07/15 00:40:12;;;;;;;;;4.00;4.00;;;;;;;;4941618;28;8986;-83
2022/07/15 00:45:22;;;;;;;;;6.00;4.50;;;;;;;;4953809;28;9709;-83
2022/07/15 00:47:52;;;;;;;;;0.25;0.25;;;;;;;;4939691;28;9584;-82
2022/07/15 00:50:22;;;;;;;;;7.75;4.00;;;;;;;;4965959;28;8926;-81
2022/07/15 00:52:55;;;;;;;;;3.00;3.00;;;;;;;;4965013;28;8863;-83
2022/07/15 00:55:24;;;;;;;;;2.75;2.75;;;;;;;;4959627;28;8903;-82
2022/07/15 00:57:53;;;;;;;;;2.25;2.25;;;;;;;;4963063;28;8998;-82
2022/07/15 01:00:21;;;;;;;;;3.50;3.50;;;;;;;;4964883;28;8875;-83
2022/07/15 01:02:50;;;;;;;;;3.00;3.00;;;;;;;;4957192;28;9641;-82
2022/07/15 01:05:20;;;;;;;;;3.50;3.50;;;;;;;;4962884;28;8903;-82
2022/07/15 01:07:49;;;;;;;;;4.50;3.25;;;;;;;;4964448;28;8927;-84
2022/07/15 01:10:17;;;;;;;;;3.00;3.00;;;;;;;;4967057;28;8871;-83
2022/07/15 01:12:47;;;;;;;;;4.50;3.50;;;;;;;;4963181;28;9008;-84
2022/07/15 01:15:19;;;;;;;;;3.00;3.00;;;;;;;;4959308;28;8996;-83
2022/07/15 01:17:47;;;;;;;;;4.00;3.00;;;;;;;;4965649;28;8896;-84
2022/07/15 01:20:16;;;;;;;;;4.00;3.50;;;;;;;;4957945;28;8845;-84
2022/07/15 01:22:48;;;;;;;;;4.75;3.75;;;;;;;;4955383;28;9682;-83
2022/07/15 01:25:16;;;;;;;;;4.00;4.00;;;;;;;;4942060;28;8873;-85
2022/07/15 01:27:45;;;;;;;;;4.00;4.00;;;;;;;;4960458;28;9657;-82
2022/07/15 01:30:12;;;;;;;;;3.00;3.00;;;;;;;;4961010;28;8867;-83
2022/07/15 01:32:40;;;;;;;;;3.25;3.25;;;;;;;;4963373;28;8917;-82
2022/07/15 01:35:08;;;;;;;;;4.50;4.50;;;;;;;;4963029;28;8863;-82
2022/07/15 01:37:36;;;;;;;;;3.00;3.00;;;;;;;;4961411;28;8877;-82
2022/07/15 01:40:07;;;;;;;;;3.50;3.50;;;;;;;;4964570;28;8951;-82
2022/07/15 01:42:34;;;;;;;;;4.25;4.25;;;;;;;;4959109;28;8876;-83
2022/07/15 01:45:01;;;;;;;;;5.00;5.00;;;;;;;;4957699;28;8901;-82
2022/07/15 01:47:31;;;;;;;;;4.50;4.50;;;;;;;;4938160;28;9656;-82
2022/07/15 01:49:57;;;;;;;;;3.00;3.00;;;;;;;;4954993;28;8988;-82
2022/07/15 01:52:24;;;;;;;;;3.00;3.00;;;;;;;;4959886;28;9668;-84
2022/07/15 01:54:52;;;;;;;;;3.75;3.25;;;;;;;;4955133;28;8883;-83
2022/07/15 01:57:21;;;;;;;;;4.00;4.00;;;;;;;;4961007;28;8929;-84
2022/07/15 01:59:48;;;;;;;;;4.00;4.00;;;;;;;;4956110;28;8857;-83
2022/07/15 02:02:16;;;;;;;;;3.00;3.00;;;;;;;;4956508;28;8847;-83
2022/07/15 02:04:45;;;;;;;;;5.00;3.00;;;;;;;;4963072;28;8941;-83
2022/07/15 02:07:12;;;;;;;;;5.00;5.00;;;;;;;;4961048;28;8959;-83
2022/07/15 02:09:40;;;;;;;;;2.00;2.00;;;;;;;;4959669;28;8880;-83
2022/07/15 02:12:07;;;;;;;;;4.00;4.00;;;;;;;;4958469;28;8882;-82
2022/07/15 02:14:36;;;;;;;;;3.75;3.75;;;;;;;;4954268;28;8866;-83
2022/07/15 02:17:04;;;;;;;;;5.50;4.00;;;;;;;;4959446;28;8889;-83
2022/07/15 02:19:32;;;;;;;;;3.00;3.00;;;;;;;;4956595;28;9632;-82
2022/07/15 02:21:59;;;;;;;;;3.50;3.50;;;;;;;;4945736;28;8871;-83
2022/07/15 02:24:26;;;;;;;;;3.25;3.25;;;;;;;;4939064;28;8865;-82
2022/07/15 02:26:54;;;;;;;;;4.50;4.00;;;;;;;;4962953;28;8921;-82
2022/07/15 02:29:21;;;;;;;;;3.75;3.75;;;;;;;;4955550;28;8901;-81
2022/07/15 02:31:50;;;;;;;;;6.00;6.00;;;;;;;;4959063;28;8820;-84
2022/07/15 02:34:18;;;;;;;;;6.75;5.00;;;;;;;;4947881;28;8851;-81
2022/07/15 02:36:45;;;;;;;;;7.25;4.00;;;;;;;;4960023;28;8905;-80
2022/07/15 02:39:12;;;;;;;;;5.00;5.00;;;;;;;;4957182;28;8893;-82
2022/07/15 02:41:40;;;;;;;;;5.00;5.00;;;;;;;;4957162;28;8865;-83
2022/07/15 02:44:07;;;;;;;;;6.00;5.75;;;;;;;;4939878;28;8901;-84
2022/07/15 02:46:35;;;;;;;;;5.75;4.00;;;;;;;;4957316;28;8926;-83
2022/07/15 02:49:03;;;;;;;;;5.25;5.25;;;;;;;;4957781;28;8899;-84
2022/07/15 02:51:31;;;;;;;;;5.00;5.00;;;;;;;;4955420;28;8893;-83
2022/07/15 02:53:58;;;;;;;;;4.00;4.00;;;;;;;;4959053;28;9701;-83
2022/07/15 02:56:27;;;;;;;;;5.50;5.50;;;;;;;;4942156;28;8881;-83
2022/07/15 02:58:55;;;;;;;;;5.00;5.00;;;;;;;;4960942;28;9677;-83
2022/07/15 03:01:22;;;;;;;;;4.00;4.00;;;;;;;;4960587;28;8869;-83
2022/07/15 03:03:49;;;;;;;;;5.00;5.00;;;;;;;;4944069;28;8935;-88
2022/07/15 03:06:18;;;;;;;;;4.50;4.50;;;;;;;;4964550;28;8917;-84
2022/07/15 03:08:46;;;;;;;;;6.25;6.25;;;;;;;;4944778;28;8864;-84
2022/07/15 03:11:14;;;;;;;;;5.25;4.00;;;;;;;;4954377;28;8904;-85
2022/07/15 03:13:41;;;;;;;;;4.25;4.25;;;;;;;;4961473;28;8871;-84
2022/07/15 03:16:08;;;;;;;;;5.50;4.50;;;;;;;;4955548;28;8901;-83
2022/07/15 03:18:36;;;;;;;;;5.25;4.00;;;;;;;;4941004;28;8955;-81
2022/07/15 03:21:04;;;;;;;;;4.00;4.00;;;;;;;;4966055;28;9006;-82
2022/07/15 03:23:33;;;;;;;;;5.50;4.25;;;;;;;;4945961;28;9010;-81
2022/07/15 03:26:00;;;;;;;;;4.00;4.00;;;;;;;;4963839;28;8903;-82
2022/07/15 03:28:27;;;;;;;;;4.00;4.00;;;;;;;;4948297;28;9026;-81
2022/07/15 03:30:55;;;;;;;;;3.75;3.75;;;;;;;;4956381;28;9597;-81
2022/07/15 03:33:22;;;;;;;;;5.50;4.00;;;;;;;;4956540;28;8887;-81
2022/07/15 03:35:50;;;;;;;;;5.00;5.00;;;;;;;;4949452;28;9004;-81
2022/07/15 03:38:17;;;;;;;;;5.25;4.25;;;;;;;;4949402;28;8867;-85
2022/07/15 03:40:47;;;;;;;;;4.50;4.50;;;;;;;;4957178;28;8872;-83
2022/07/15 03:43:15;;;;;;;;;3.75;3.75;;;;;;;;4960392;28;8908;-84
2022/07/15 03:45:46;;;;;;;;;3.75;3.75;;;;;;;;4960150;28;9025;-82
2022/07/15 03:48:13;;;;;;;;;4.25;4.00;;;;;;;;4962240;28;9002;-82
2022/07/15 03:50:41;;;;;;;;;5.50;4.00;;;;;;;;4962752;28;8917;-83
2022/07/15 03:53:09;;;;;;;;;4.75;4.75;;;;;;;;4945148;28;8861;-85
2022/07/15 03:55:38;;;;;;;;;4.25;4.25;;;;;;;;4939149;28;8890;-84
2022/07/15 03:58:07;;;;;;;;;5.50;4.75;;;;;;;;4963087;28;8877;-83
2022/07/15 04:00:34;;;;;;;;;7.50;5.75;;;;;;;;4958240;28;8844;-83
2022/07/15 04:03:01;;;;;;;;;4.00;4.00;;;;;;;;4961661;28;8895;-83
2022/07/15 04:05:29;;;;;;;;;5.00;3.67;;;;;;;;4955143;28;8893;-84
2022/07/15 04:07:56;;;;;;;;;5.67;5.67;;;;;;;;4958595;28;9053;-83
2022/07/15 04:10:24;;;;;;;;;6.00;5.00;;;;;;;;4953463;28;9004;-83
2022/07/15 04:12:51;;;;;;;;;4.67;4.67;;;;;;;;4965521;28;9057;-82
2022/07/15 04:15:20;;;;;;;;;6.00;5.00;;;;;;;;4959210;28;9028;-82
2022/07/15 04:17:47;;;;;;;;;3.00;2.67;;;;;;;;4961668;28;9200;-83
2022/07/15 04:20:15;;;;;;;;;5.33;4.00;;;;;;;;4958948;28;9299;-81
2022/07/15 04:22:43;;;;;;;;;4.75;4.00;;;;;;;;4962237;28;9402;-82
2022/07/15 04:25:11;;;;;;;;;5.75;5.75;;;;;;;;4960886;28;9436;-82
2022/07/15 04:27:39;;;;;;;;;4.50;4.50;;;;;;;;4956828;28;9507;-82
2022/07/15 04:30:08;;;;;;;;;4.00;4.00;;;;;;;;4957105;28;9658;-81
2022/07/15 04:32:37;;;;;;;;;4.25;4.25;;;;;;;;4940555;28;9559;-81
2022/07/15 04:35:05;;;;;;;;;4.00;4.00;;;;;;;;4959994;28;9506;-82
2022/07/15 04:37:33;;;;;;;;;6.25;5.75;;;;;;;;4963531;28;9514;-82
2022/07/15 04:40:00;;;;;;;;;7.25;6.00;;;;;;;;4954710;28;9437;-82
2022/07/15 04:42:27;;;;;;;;;4.00;4.00;;;;;;;;4962523;28;9608;-82
2022/07/15 04:44:55;;;;;;;;;5.00;5.00;;;;;;;;4939523;28;9579;-84
2022/07/15 04:47:22;;;;;;;;;5.67;4.33;;;;;;;;4943906;28;9418;-84
2022/07/15 04:52:36;;;;;;;;;5.00;5.00;;;;;;;;4951775;28;9506;-83
2022/07/15 04:55:04;;;;;;;;;4.00;4.00;;;;;;;;4953974;28;9467;-83
2022/07/15 04:57:31;;;;;;;;;7.67;7.67;;;;;;;;4959467;28;9514;-81
2022/07/15 04:59:58;;;;;;;;;5.00;5.00;;;;;;;;4943493;28;9434;-82
2022/07/15 05:02:26;;;;;;;;;6.33;4.33;;;;;;;;4961730;28;9295;-82
2022/07/15 05:04:55;;;;;;;;;6.00;4.67;;;;;;;;4959908;28;10066;-82
2022/07/15 05:07:22;;;;;;;;;5.00;5.00;;;;;;;;4959619;28;9230;-82
2022/07/15 05:09:49;;;;;;;;;5.00;5.00;;;;;;;;4964943;28;9166;-83
2022/07/15 05:12:17;;;;;;;;;8.00;4.33;;;;;;;;4964387;28;9165;-86
2022/07/15 05:14:47;;;;;;;;;4.67;3.33;;;;;;;;4964886;28;8952;-84
2022/07/15 05:17:14;;;;;;;;;6.00;6.00;;;;;;;;4945085;28;8974;-85
2022/07/15 05:19:42;;;;;;;;;6.75;6.75;;;;;;;;4960265;28;8867;-83
2022/07/15 05:22:11;;;;;;;;;7.00;5.00;;;;;;;;4956104;28;9657;-82
2022/07/15 05:24:38;;;;;;;;;7.75;5.00;;;;;;;;4955379;28;9699;-84
2022/07/15 05:27:06;;;;;;;;;5.00;4.00;;;;;;;;4960707;28;9321;-83
2022/07/15 05:29:34;;;;;;;;;6.50;5.00;;;;;;;;4955134;28;8936;-83
2022/07/15 05:32:02;;;;;;;;;7.00;5.25;;;;;;;;4944726;28;8879;-84
2022/07/15 05:34:29;;;;;;;;;5.00;5.00;;;;;;;;4945130;28;8875;-86
2022/07/15 05:36:56;;;;;;;;;5.00;5.00;;;;;;;;4968363;28;8882;-84
2022/07/15 05:39:53;;;;;;;;;7.75;6.50;;;;;;;;4972027;28;8992;-86
2022/07/15 05:42:20;;;;;;;;;5.00;5.00;;;;;;;;4965110;28;8887;-78
2022/07/15 05:44:48;;;;;;;;;5.25;4.50;;;;;;;;4941531;28;8933;-82
2022/07/15 05:47:15;;;;;;;;;5.25;5.25;;;;;;;;4942257;28;10024;-81
2022/07/15 05:49:43;;;;;;;;;4.75;4.75;;;;;;;;4959319;28;8985;-82
2022/07/15 05:52:10;;;;;;;;;5.00;5.00;;;;;;;;4959681;28;8906;-80
2022/07/15 05:54:40;;;;;;;;;4.00;4.00;;;;;;;;4960598;28;8897;-81
2022/07/15 05:57:08;;;;;;;;;6.00;4.25;;;;;;;;4968739;28;8919;-81
2022/07/15 05:59:37;;;;;;;;;5.00;5.00;;;;;;;;4952011;28;8832;-84
2022/07/15 06:02:04;;;;;;;;;4.50;4.50;;;;;;;;4962040;28;9562;-80
2022/07/15 06:04:32;;;;;;;;;6.00;6.00;;;;;;;;4967536;28;8859;-81
2022/07/15 06:06:59;;;;;;;;;7.25;5.00;;;;;;;;4961710;28;8872;-85
2022/07/15 06:09:27;;;;;;;;;4.75;4.75;;;;;;;;4965853;28;8973;-87
2022/07/15 06:11:56;;;;;;;;;5.50;4.00;;;;;;;;4943231;28;8974;-84
2022/07/15 06:14:23;;;;;;;;;4.75;4.75;;;;;;;;4961139;28;8885;-86
2022/07/15 06:16:50;;;;;;;;;7.00;7.00;;;;;;;;4960394;28;8859;-86
2022/07/15 06:19:17;;;;;;;;;4.75;4.75;;;;;;;;4956319;28;8897;-86
2022/07/15 06:21:45;;;;;;;;;7.75;4.75;;;;;;;;4958182;28;8865;-79
2022/07/15 06:24:12;;;;;;;;;6.25;5.00;;;;;;;;4965481;28;8930;-85
2022/07/15 06:26:39;;;;;;;;;7.00;7.00;;;;;;;;4964163;28;10245;-80
2022/07/15 06:29:08;;;;;;;;;6.75;6.75;;;;;;;;4960003;28;8874;-82
2022/07/15 06:31:35;;;;;;;;;6.50;5.75;;;;;;;;4939163;28;9000;-76
2022/07/15 06:34:03;;;;;;;;;7.75;7.75;;;;;;;;4962543;28;8893;-74
2022/07/15 06:36:30;;;;;;;;;8.00;7.00;;;;;;;;4959352;28;9518;-74
2022/07/15 06:38:58;;;;;;;;;7.75;7.75;;;;;;;;4962699;28;8877;-82
2022/07/15 06:41:26;;;;;;;;;8.50;6.00;;;;;;;;4939364;28;8977;-79
2022/07/15 06:43:54;;;;;;;;;10.50;8.50;;;;;;;;4955906;28;9028;-75
2022/07/15 06:46:23;;;;;;;;;6.00;5.75;;;;;;;;4954330;28;8902;-80
2022/07/15 06:48:50;;;;;;;;;6.75;6.75;;;;;;;;4940116;28;8879;-74
2022/07/15 06:51:17;;;;;;;;;6.00;6.00;;;;;;;;4956460;28;8897;-81
2022/07/15 06:53:48;;;;;;;;;9.50;6.00;;;;;;;;4960409;28;8885;-74
2022/07/15 06:56:15;;;;;;;;;6.75;6.75;;;;;;;;4955727;28;8871;-72
2022/07/15 06:58:42;;;;;;;;;7.75;6.25;;;;;;;;4956678;28;9012;-89
2022/07/15 07:01:09;;;;;;;;;8.75;5.25;;;;;;;;4955675;28;8922;-73
2022/07/15 07:03:39;;;;;;;;;4.00;4.00;;;;;;;;4941526;28;8871;-77
2022/07/15 07:06:06;;;;;;;;;5.75;5.75;;;;;;;;4964151;28;8897;-74
2022/07/15 07:08:34;;;;;;;;;5.50;3.50;;;;;;;;4944403;28;8939;-73
2022/07/15 07:11:01;;;;;;;;;4.75;4.75;;;;;;;;4945198;28;8879;-74
2022/07/15 07:13:29;;;;;;;;;3.75;3.75;;;;;;;;4958745;28;8871;-75
2022/07/15 07:15:56;;;;;;;;;6.00;4.00;;;;;;;;4957883;28;9683;-73
2022/07/15 07:18:23;;;;;;;;;5.25;5.00;;;;;;;;4959662;28;9652;-75
2022/07/15 07:20:52;;;;;;;;;5.25;4.00;;;;;;;;4958185;28;8893;-78
2022/07/15 07:23:20;;;;;;;;;5.00;5.00;;;;;;;;4959587;28;8882;-76
2022/07/15 07:25:47;;;;;;;;;3.00;3.00;;;;;;;;4961559;28;8884;-78
2022/07/15 07:28:14;;;;;;;;;3.50;3.50;;;;;;;;4957373;28;8897;-76
2022/07/15 07:30:42;;;;;;;;;3.25;3.25;;;;;;;;4959982;28;8935;-74
2022/07/15 07:33:09;;;;;;;;;3.00;1.25;;;;;;;;4956315;28;8858;-74
2022/07/15 07:35:36;;;;;;;;;2.25;2.25;;;;;;;;4957046;28;8941;-75
2022/07/15 07:38:05;;;;;;;;;2.50;2.00;;;;;;;;4961053;28;8895;-73
2022/07/15 07:40:33;;;;;;;;;2.00;2.00;;;;;;;;4962667;28;8889;-73
2022/07/15 07:43:00;;;;;;;;;2.75;2.00;;;;;;;;4961749;28;9630;-76
2022/07/15 07:45:28;;;;;;;;;3.00;3.00;;;;;;;;4960022;28;8883;-75
2022/07/15 07:47:56;;;;;;;;;2.00;0.25;;;;;;;;4954829;28;8881;-74
2022/07/15 07:50:24;;;;;;;;;3.25;3.00;;;;;;;;4962109;28;8890;-74
2022/07/15 07:52:52;;;;;;;;;3.75;3.75;;;;;;;;4958023;28;8897;-76
2022/07/15 07:55:20;;;;;;;;;1.75;1.75;;;;;;;;4958291;28;8859;-77
2022/07/15 07:57:49;;;;;;;;;2.25;2.25;;;;;;;;4942457;28;8991;-76
2022/07/15 08:00:17;;;;;;;;;2.00;2.00;;;;;;;;4954637;28;8891;-78
2022/07/15 08:02:45;;;;;;;;;2.00;2.00;;;;;;;;4941089;28;8859;-77
2022/07/15 08:05:12;;;;;;;;;1.60;1.60;;;;;;;;4956142;28;8868;-78
2022/07/15 08:07:40;;;;;;;;;1.00;1.00;;;;;;;;4960646;28;8882;-79
2022/07/15 08:10:09;;;;;;;;;1.60;1.00;;;;;;;;4954954;28;9696;-80
2022/07/15 08:12:38;;;;;;;;;1.40;1.40;;;;;;;;4962245;28;9612;-78
2022/07/15 08:15:08;;;;;;;;;4.60;1.60;;;;;;;;4960267;28;8895;-76
2022/07/15 08:17:37;;;;;;;;;2.00;2.00;;;;;;;;4943467;28;8871;-76
2022/07/15 08:20:07;;;;;;;;;1.60;1.60;;;;;;;;4963536;28;8893;-77
2022/07/15 08:22:34;;;;;;;;;2.00;2.00;;;;;;;;4962752;28;8936;-78
2022/07/15 08:25:02;;;;;;;;;1.60;1.60;;;;;;;;4960258;28;8901;-83
2022/07/15 08:27:30;;;;;;;;;2.00;2.00;;;;;;;;4958401;28;9650;-77
2022/07/15 08:29:59;;;;;;;;;1.00;1.00;;;;;;;;4955253;28;8917;-79
2022/07/15 08:32:26;;;;;;;;;1.20;1.20;;;;;;;;4955530;28;8908;-77
2022/07/15 08:34:53;;;;;;;;;1.00;1.00;;;;;;;;4953070;28;8932;-78
2022/07/15 08:37:20;;;;;;;;;1.40;1.40;;;;;;;;4961492;28;8893;-77
2022/07/15 08:39:48;;;;;;;;;1.00;1.00;;;;;;;;4955201;28;9635;-78
2022/07/15 08:42:16;;;;;;;;;0.00;0.00;;;;;;;;4946862;28;9647;-79
2022/07/15 08:44:43;;;;;;;;;0.60;0.60;;;;;;;;4956936;28;10017;-79
2022/07/15 08:47:12;;;;;;;;;0.20;0.20;;;;;;;;4933746;28;8908;-80
2022/07/15 08:49:40;;;;;;;;;0.20;0.20;;;;;;;;4940044;28;8895;-78
2022/07/15 08:52:08;;;;;;;;;0.80;0.80;;;;;;;;4959546;28;8894;-78
2022/07/15 08:54:35;;;;;;;;;0.60;0.60;;;;;;;;4955983;28;8875;-79
2022/07/15 08:57:03;;;;;;;;;0.40;0.40;;;;;;;;4956332;28;8902;-78
2022/07/15 08:59:31;;;;;;;;;2.20;0.80;;;;;;;;4967296;28;8903;-79
2022/07/15 09:01:59;;;;;;;;;0.60;0.60;;;;;;;;4954121;28;8819;-79
2022/07/15 09:04:27;;;;;;;;;1.00;1.00;;;;;;;;4944045;28;8905;-79
2022/07/15 09:06:55;;;;;;;;;1.20;1.20;;;;;;;;4946481;28;8865;-79
2022/07/15 09:09:30;;;;;;;;;0.20;0.20;;;;;;;;4946059;28;8893;-79
2022/07/15 09:12:00;;;;;;;;;0.20;0.20;;;;;;;;4958151;28;8905;-79
2022/07/15 09:14:29;;;;;;;;;0.20;0.20;;;;;;;;4961897;28;8885;-79
2022/07/15 09:17:08;;;;;;;;;3.60;2.00;;;;;;;;4956275;28;9716;-80
2022/07/15 09:20:04;;;;;;;;;1.60;1.60;;;;;;;;4946681;28;8981;-79
2022/07/15 09:22:33;;;;;;;;;0.80;0.80;;;;;;;;4945479;28;8897;-80
2022/07/15 09:25:06;;;;;;;;;0.80;0.80;;;;;;;;4967966;28;8893;-78
2022/07/15 09:27:36;;;;;;;;;1.00;1.00;;;;;;;;4953747;28;8889;-79
2022/07/15 09:36:05;;;;;;;;;0.80;0.80;;;;;;;;4960915;28;8962;-79
2022/07/15 09:38:34;;;;;;;;;0.80;0.80;;;;;;;;4949344;28;8946;-78
2022/07/15 09:41:02;;;;;;;;;0.00;0.00;;;;;;;;4962769;28;8943;-76
2022/07/15 09:43:30;;;;;;;;;0.80;0.80;;;;;;;;4963995;28;8989;-78
2022/07/15 09:45:59;;;;;;;;;2.80;0.80;;;;;;;;4960636;28;8879;-78
2022/07/15 09:48:28;;;;;;;;;0.00;0.00;;;;;;;;4962911;28;9003;-78
2022/07/15 09:51:01;;;;;;;;;0.80;0.80;;;;;;;;4958313;28;8920;-78
2022/07/15 09:53:29;;;;;;;;;0.00;0.00;;;;;;;;4956945;28;8889;-78
2022/07/15 09:55:56;;;;;;;;;0.00;0.00;;;;;;;;4959769;28;8875;-78
2022/07/15 09:58:24;;;;;;;;;0.00;0.00;;;;;;;;4960774;28;8872;-78
2022/07/15 10:00:53;;;;;;;;;0.00;0.00;;;;;;;;4954519;28;8846;-77
2022/07/15 10:03:23;;;;;;;;;0.60;0.60;;;;;;;;4959011;28;8904;-78
2022/07/15 10:05:54;;;;;;;;;0.40;0.40;;;;;;;;4959446;28;8887;-78
2022/07/15 10:08:24;;;;;;;;;0.00;0.00;;;;;;;;4959763;28;8902;-78
2022/07/15 10:10:51;;;;;;;;;0.00;0.00;;;;;;;;4962061;28;8906;-78
2022/07/15 10:13:55;;;;;;;;;0.00;0.00;;;;;;;;4960728;28;8913;-78
2022/07/15 10:16:48;;;;;;;;;0.40;0.00;;;;;;;;4963193;28;8873;-78
2022/07/15 10:19:25;;;;;;;;;0.00;0.00;;;;;;;;4904164;29;8921;-77
2022/07/15 10:22:00;;;;;;;;;0.40;0.40;;;;;;;;4963407;28;8895;-77
2022/07/15 10:24:49;;;;;;;;;1.00;0.00;;;;;;;;4964508;28;8979;-78
2022/07/15 10:27:26;;;;;;;;;0.00;0.00;;;;;;;;4961839;28;8912;-78
2022/07/15 10:29:54;;;;;;;;;0.00;0.00;;;;;;;;4957630;28;8889;-86
2022/07/15 10:32:21;;;;;;;;;0.00;0.00;;;;;;;;4938374;28;8827;-80
2022/07/15 10:34:49;;;;;;;;;0.00;0.00;;;;;;;;4941137;28;8860;-76
2022/07/15 10:37:16;;;;;;;;;0.00;0.00;;;;;;;;4959072;28;8887;-77
2022/07/15 10:39:57;;;;;;;;;0.00;0.00;;;;;;;;4959074;28;9002;-77
2022/07/15 10:42:25;;;;;;;;;0.60;0.00;;;;;;;;4940807;28;8995;-77
2022/07/15 10:45:07;;;;;;;;;0.00;0.00;;;;;;;;4955857;28;8906;-77
2022/07/15 10:47:38;;;;;;;;;0.00;0.00;;;;;;;;4963529;28;9073;-78
2022/07/15 10:50:39;;;;;;;;;0.00;0.00;;;;;;;;4959820;28;8943;-78
2022/07/15 10:53:24;;;;;;;;;0.00;0.00;;;;;;;;4959129;28;8888;-78
2022/07/15 10:55:53;;;;;;;;;0.00;0.00;;;;;;;;4957984;28;8981;-78
2022/07/15 10:58:20;;;;;;;;;0.00;0.00;;;;;;;;4956319;28;8892;-78
2022/07/15 11:00:48;;;;;;;;;0.00;0.00;;;;;;;;4957412;28;8920;-78
2022/07/15 11:03:18;;;;;;;;;0.00;0.00;;;;;;;;4963564;28;8917;-78
2022/07/15 11:06:06;;;;;;;;;0.00;0.00;;;;;;;;4960685;28;8923;-78
2022/07/15 11:08:51;;;;;;;;;0.00;0.00;;;;;;;;4963797;28;8965;-78
2022/07/15 11:11:48;;;;;;;;;0.00;0.00;;;;;;;;4958557;28;9636;-78
2022/07/15 11:14:41;;;;;;;;;0.00;0.00;;;;;;;;4958862;28;9693;-77
2022/07/15 11:17:08;;;;;;;;;0.00;0.00;;;;;;;;4955401;28;8867;-77
2022/07/15 11:19:37;;;;;;;;;0.00;0.00;;;;;;;;4951654;28;8939;-78
2022/07/15 11:22:04;;;;;;;;;0.00;0.00;;;;;;;;4943667;28;8871;-78
2022/07/15 11:24:32;;;;;;;;;0.00;0.00;;;;;;;;4964539;28;8994;-77
2022/07/15 11:27:03;;;;;;;;;0.00;0.00;;;;;;;;4959350;28;8851;-78
2022/07/15 11:29:47;;;;;;;;;0.00;0.00;;;;;;;;4957024;28;8871;-77
2022/07/15 11:32:15;;;;;;;;;0.00;0.00;;;;;;;;4955647;28;8850;-78
2022/07/15 11:34:45;;;;;;;;;0.00;0.00;;;;;;;;4957575;28;8877;-79
2022/07/15 11:37:18;;;;;;;;;0.00;0.00;;;;;;;;4957269;28;8915;-78
2022/07/15 11:39:48;;;;;;;;;0.00;0.00;;;;;;;;4955713;28;8875;-78
2022/07/15 11:45:08;;;;;;;;;0.00;0.00;;;;;;;;4954136;28;8862;-77
2022/07/15 11:47:35;;;;;;;;;0.00;0.00;;;;;;;;4944293;28;8889;-77
2022/07/15 11:50:04;;;;;;;;;0.00;0.00;;;;;;;;4956818;28;8897;-77
2022/07/15 11:52:32;;;;;;;;;0.00;0.00;;;;;;;;4956019;28;8866;-76
2022/07/15 11:54:59;;;;;;;;;0.00;0.00;;;;;;;;4958956;28;8997;-75
2022/07/15 11:57:34;;;;;;;;;1.80;0.00;;;;;;;;4959057;28;9711;-76
2022/07/15 12:00:03;;;;;;;;;0.00;0.00;;;;;;;;4963247;28;8885;-76
2022/07/15 12:02:30;;;;;;;;;1.00;0.00;;;;;;;;4963291;28;8853;-76
2022/07/15 12:05:05;;;;;;;;;0.00;0.00;;;;;;;;4964907;28;8881;-76
2022/07/15 12:07:43;;;;;;;;;0.00;0.00;;;;;;;;4960712;28;8918;-75
2022/07/15 12:10:12;;;;;;;;;1.80;0.00;;;;;;;;4960303;28;8873;-76
2022/07/15 12:12:54;;;;;;;;;0.00;0.00;;;;;;;;4959092;28;8912;-75
2022/07/15 12:15:22;;;;;;;;;0.00;0.00;;;;;;;;4953615;28;8899;-76
2022/07/15 12:17:50;;;;;;;;;0.00;0.00;;;;;;;;4958217;28;8867;-76
2022/07/15 12:20:17;;;;;;;;;0.00;0.00;;;;;;;;4955447;28;9680;-75
2022/07/15 12:23:03;;;;;;;;;0.00;0.00;;;;;;;;4956394;28;8863;-75
2022/07/15 12:25:30;;;;;;;;;0.00;0.00;;;;;;;;4954687;28;8887;-75
2022/07/15 12:27:59;;;;;;;;;0.00;0.00;;;;;;;;4957952;28;8890;-76
2022/07/15 12:30:33;;;;;;;;;0.00;0.00;;;;;;;;4961941;28;8812;-76
2022/07/15 12:33:24;;;;;;;;;0.00;0.00;;;;;;;;4956859;28;8885;-75
2022/07/15 12:36:01;;;;;;;;;0.00;0.00;;;;;;;;4939237;28;8871;-77
2022/07/15 12:38:30;;;;;;;;;0.00;0.00;;;;;;;;4949473;28;8887;-76
2022/07/15 12:41:06;;;;;;;;;0.00;0.00;;;;;;;;4958416;28;9018;-79
2022/07/15 12:43:52;;;;;;;;;0.00;0.00;;;;;;;;4959120;28;8863;-82
2022/07/15 12:46:19;;;;;;;;;0.00;0.00;;;;;;;;4937288;28;8885;-80
2022/07/15 12:48:48;;;;;;;;;0.00;0.00;;;;;;;;4955855;28;8859;-79
2022/07/15 12:51:17;;;;;;;;;0.00;0.00;;;;;;;;4953804;28;8952;-78
2022/07/15 12:53:49;;;;;;;;;0.00;0.00;;;;;;;;4954708;28;8908;-83
2022/07/15 12:56:17;;;;;;;;;0.00;0.00;;;;;;;;4956548;28;8887;-80
2022/07/15 12:58:44;;;;;;;;;0.00;0.00;;;;;;;;4957522;28;8867;-82
2022/07/15 13:01:15;;;;;;;;;0.00;0.00;;;;;;;;4958203;28;9227;-79
2022/07/15 13:03:42;;;;;;;;;0.00;0.00;;;;;;;;4961344;28;8880;-79
2022/07/15 13:06:11;;;;;;;;;0.80;0.00;;;;;;;;4960691;28;8873;-79
2022/07/15 13:08:40;;;;;;;;;0.00;0.00;;;;;;;;4961690;28;8937;-76
2022/07/15 13:11:09;;;;;;;;;0.00;0.00;;;;;;;;4957835;28;8894;-79
2022/07/15 13:13:39;;;;;;;;;0.00;0.00;;;;;;;;4951878;28;8861;-77
2022/07/15 13:16:07;;;;;;;;;0.00;0.00;;;;;;;;4950665;28;8937;-78
2022/07/15 13:18:37;;;;;;;;;0.00;0.00;;;;;;;;4952774;28;8935;-78
2022/07/15 13:21:04;;;;;;;;;0.00;0.00;;;;;;;;4937517;28;8901;-77
2022/07/15 13:23:32;;;;;;;;;0.00;0.00;;;;;;;;4956993;28;8881;-77
2022/07/15 13:26:00;;;;;;;;;0.00;0.00;;;;;;;;4956708;28;8898;-78
2022/07/15 13:28:27;;;;;;;;;0.00;0.00;;;;;;;;4952656;28;8893;-85
2022/07/15 13:30:57;;;;;;;;;0.00;0.00;;;;;;;;4959764;28;8859;-79
2022/07/15 13:33:25;;;;;;;;;0.00;0.00;;;;;;;;4956412;28;8859;-79
2022/07/15 13:35:57;;;;;;;;;0.00;0.00;;;;;;;;4957422;28;8907;-78
2022/07/15 13:38:24;;;;;;;;;0.00;0.00;;;;;;;;4959047;28;8977;-77
2022/07/15 13:40:52;;;;;;;;;0.00;0.00;;;;;;;;4961091;28;8905;-78
2022/07/15 13:43:19;;;;;;;;;0.00;0.00;;;;;;;;4959907;28;8925;-78
2022/07/15 13:45:47;;;;;;;;;0.00;0.00;;;;;;;;4956037;28;8907;-79
2022/07/15 13:48:15;;;;;;;;;0.00;0.00;;;;;;;;4959843;28;8886;-79
2022/07/15 13:53:29;;;;;;;;;0.00;0.00;;;;;;;;4956786;28;8857;-78
2022/07/15 13:55:56;;;;;;;;;0.00;0.00;;;;;;;;4959087;28;8898;-78
2022/07/15 13:58:24;;;;;;;;;0.00;0.00;;;;;;;;4952690;28;8894;-78
2022/07/15 14:00:51;;;;;;;;;0.00;0.00;;;;;;;;4943992;28;8859;-79
2022/07/15 14:03:18;;;;;;;;;0.00;0.00;;;;;;;;4963874;28;8883;-78
2022/07/15 14:05:46;;;;;;;;;0.00;0.00;;;;;;;;4962791;28;9693;-78
2022/07/15 14:08:13;;;;;;;;;0.00;0.00;;;;;;;;4969886;28;8879;-79
2022/07/15 14:10:42;;;;;;;;;0.00;0.00;;;;;;;;4942954;28;8887;-77
2022/07/15 14:13:10;;;;;;;;;0.00;0.00;;;;;;;;4956451;28;8887;-79
2022/07/15 14:15:38;;;;;;;;;0.00;0.00;;;;;;;;4965238;28;8901;-79
2022/07/15 14:18:05;;;;;;;;;0.00;0.00;;;;;;;;4956277;28;8895;-79
2022/07/15 14:20:32;;;;;;;;;0.80;0.00;;;;;;;;4953725;28;8893;-78
2022/07/15 14:23:00;;;;;;;;;0.00;0.00;;;;;;;;4964837;28;8881;-79
2022/07/15 14:25:27;;;;;;;;;0.00;0.00;;;;;;;;4955403;28;8905;-78
2022/07/15 14:27:56;;;;;;;;;0.00;0.00;;;;;;;;4954731;28;8895;-78
2022/07/15 14:30:24;;;;;;;;;0.00;0.00;;;;;;;;4964939;28;8820;-79
2022/07/15 14:32:51;;;;;;;;;0.00;0.00;;;;;;;;4962237;28;8993;-79
2022/07/15 14:35:19;;;;;;;;;0.00;0.00;;;;;;;;4963101;28;8887;-78
2022/07/15 14:37:46;;;;;;;;;0.00;0.00;;;;;;;;4962480;28;8860;-78
2022/07/15 14:40:14;;;;;;;;;0.00;0.00;;;;;;;;4968444;28;8875;-78
2022/07/15 14:42:41;;;;;;;;;0.00;0.00;;;;;;;;4964672;28;8955;-78
2022/07/15 14:45:11;;;;;;;;;0.00;0.00;;;;;;;;4960574;28;8873;-78
2022/07/15 14:47:38;;;;;;;;;0.00;0.00;;;;;;;;4959554;28;8913;-78
2022/07/15 14:50:06;;;;;;;;;0.00;0.00;;;;;;;;4958336;28;8898;-78
2022/07/15 14:52:33;;;;;;;;;0.00;0.00;;;;;;;;4957391;28;8909;-78
2022/07/15 14:55:01;;;;;;;;;0.00;0.00;;;;;;;;4955640;28;8900;-78
2022/07/15 14:57:28;;;;;;;;;0.00;0.00;;;;;;;;4960690;28;8891;-78
2022/07/15 14:59:56;;;;;;;;;1.80;0.00;;;;;;;;4960344;28;8947;-79
2022/07/15 15:02:24;;;;;;;;;0.00;0.00;;;;;;;;4941672;28;8832;-78
2022/07/15 15:04:52;;;;;;;;;0.00;0.00;;;;;;;;4964582;28;8897;-80
2022/07/15 15:07:19;;;;;;;;;1.00;0.00;;;;;;;;4956669;28;8887;-78
2022/07/15 15:09:46;;;;;;;;;0.00;0.00;;;;;;;;4954437;28;8905;-78
2022/07/15 15:12:16;;;;;;;;;0.00;0.00;;;;;;;;4961858;28;8883;-78
2022/07/15 15:14:46;;;;;;;;;0.00;0.00;;;;;;;;4955125;28;8881;-78
2022/07/15 15:17:15;;;;;;;;;0.00;0.00;;;;;;;;4956107;28;9045;-79
2022/07/15 15:19:44;;;;;;;;;0.00;0.00;;;;;;;;4956974;28;8885;-78
2022/07/15 15:22:11;;;;;;;;;0.00;0.00;;;;;;;;4966341;28;9649;-78
2022/07/15 15:24:39;;;;;;;;;0.00;0.00;;;;;;;;4948229;28;9679;-78
2022/07/15 15:27:10;;;;;;;;;0.20;0.00;;;;;;;;4960164;28;8897;-78